Terminal Aerodrome Forecast
Issued by NWS Melbourne, FL

Current Version | Previous Version | Text Only | Print | Product List | Glossary On
Versions: 1 2 3 4 5 6 7 8 9 10 11 12 13 14 15 16 17
000
FTUS42 KMLB 302337
TAFDAB
TAF
KDAB 302337Z 0100/0124 35005KT P6SM VCTS SCT035CB SCT090 BKN120
     FM010100 VRB03KT P6SM FEW040 SCT100 BKN250
     FM010600 VRB03KT P6SM SCT250
     FM011500 36005KT P6SM SCT025 SCT250
     FM011700 06005KT P6SM SCT035 SCT250=

USA.gov is the U.S. government's official web portal to all federal, state and local government web resources and services.